createdAt,value
2022-11-29T00:01:12.718Z,88.21
2022-11-29T00:04:15.409Z,88.12
2022-11-29T00:07:17.717Z,88.57
2022-11-29T00:10:20.366Z,88.59
2022-11-29T00:13:22.634Z,88.36
2022-11-29T00:16:25.243Z,88.65
2022-11-29T00:19:28.098Z,88.25
2022-11-29T00:22:30.593Z,88.22
2022-11-29T00:25:32.856Z,88.26
2022-11-29T00:28:36.629Z,88.42
2022-11-29T00:31:39.855Z,88.44
2022-11-29T00:34:42.711Z,88.08
2022-11-29T00:37:45.225Z,87.93
2022-11-29T00:40:52.016Z,87.86
2022-11-29T00:43:54.679Z,88.21
2022-11-29T00:46:57.210Z,88.55
2022-11-29T00:49:59.475Z,88.36
2022-11-29T00:53:01.980Z,88.48
2022-11-29T00:56:05.523Z,88.65
2022-11-29T00:59:08.024Z,89.14
2022-11-29T01:02:10.288Z,89.25
2022-11-29T01:05:12.898Z,89.32
2022-11-29T01:08:15.596Z,89.09
2022-11-29T01:11:24.227Z,88.94
2022-11-29T01:14:26.529Z,88.78
2022-11-29T01:17:29.053Z,88.78
2022-11-29T01:20:31.539Z,88.48
2022-11-29T01:23:35.539Z,88.96
2022-11-29T01:26:38.094Z,89.04
2022-11-29T01:29:40.723Z,88.87
2022-11-29T01:32:43.005Z,88.68
2022-11-29T01:35:49.865Z,88.51
2022-11-29T01:38:52.509Z,88.25
2022-11-29T01:41:55.075Z,88.02
2022-11-29T01:45:22.377Z,88.11
2022-11-29T01:48:30.943Z,88.52
2022-11-29T01:51:35.924Z,87.96
2022-11-29T01:54:43.776Z,87.99
2022-11-29T01:57:46.825Z,87.96
2022-11-29T02:00:49.541Z,87.97
2022-11-29T02:03:53.678Z,88.09
2022-11-29T02:06:56.200Z,88.21
2022-11-29T02:09:58.758Z,88.53
2022-11-29T02:13:14.853Z,88.26
2022-11-29T02:16:55.029Z,88.09
2022-11-29T02:20:32.960Z,88.00
2022-11-29T02:23:35.153Z,87.90
2022-11-29T02:26:49.858Z,87.99
2022-11-29T02:30:33.792Z,87.76
2022-11-29T02:33:39.196Z,87.63
2022-11-29T02:37:12.658Z,87.64
2022-11-29T02:40:24.309Z,87.77
2022-11-29T02:44:14.334Z,87.52
2022-11-29T02:48:08.832Z,87.58
2022-11-29T02:51:20.105Z,87.68
2022-11-29T02:54:29.839Z,87.99
2022-11-29T02:57:38.097Z,87.88
2022-11-29T03:00:51.587Z,87.84
2022-11-29T03:04:23.701Z,88.01
2022-11-29T03:07:46.733Z,87.86
2022-11-29T03:10:54.729Z,87.79
2022-11-29T03:14:14.738Z,87.82
2022-11-29T03:17:22.319Z,87.50
2022-11-29T03:21:02.662Z,87.41
2022-11-29T03:24:15.800Z,87.62
2022-11-29T03:27:28.958Z,87.63
2022-11-29T03:30:35.131Z,87.96
2022-11-29T03:33:51.472Z,87.83
2022-11-29T03:37:01.106Z,87.59
2022-11-29T03:40:08.354Z,88.16
2022-11-29T03:43:18.155Z,88.07
2022-11-29T03:46:26.892Z,87.75
2022-11-29T03:49:47.853Z,87.44
2022-11-29T03:53:05.178Z,87.06
2022-11-29T03:56:35.892Z,87.18
2022-11-29T04:00:08.116Z,87.21
2022-11-29T04:03:32.277Z,87.35
2022-11-29T04:06:52.229Z,87.37
2022-11-29T04:10:28.432Z,88.22
2022-11-29T04:13:52.183Z,88.31
2022-11-29T04:16:57.182Z,88.33
2022-11-29T04:20:17.742Z,88.13
2022-11-29T04:23:32.633Z,88.22
2022-11-29T04:26:40.788Z,88.17
2022-11-29T04:30:14.155Z,87.92
2022-11-29T04:33:35.265Z,88.36
2022-11-29T04:36:59.186Z,88.36
2022-11-29T04:40:01.610Z,88.33
2022-11-29T04:43:34.654Z,88.49
2022-11-29T04:46:58.815Z,88.35
2022-11-29T04:50:25.675Z,88.06
2022-11-29T04:53:48.053Z,88.24
2022-11-29T04:56:51.539Z,88.16
2022-11-29T05:00:10.018Z,88.06
2022-11-29T05:03:23.483Z,88.36
2022-11-29T05:07:06.450Z,88.40
2022-11-29T05:10:36.929Z,88.19
2022-11-29T05:13:48.366Z,88.33
2022-11-29T05:17:08.831Z,88.55
2022-11-29T05:20:39.379Z,88.58
2022-11-29T05:24:19.322Z,88.63
2022-11-29T05:28:02.505Z,88.70
2022-11-29T05:31:36.412Z,88.59
2022-11-29T05:35:06.680Z,88.55
2022-11-29T05:38:31.825Z,88.27
2022-11-29T05:41:52.354Z,88.27
2022-11-29T05:45:16.988Z,87.97
2022-11-29T05:48:32.609Z,88.29
2022-11-29T05:51:45.975Z,88.90
2022-11-29T05:55:09.955Z,89.08
2022-11-29T05:58:40.846Z,88.81
2022-11-29T06:01:55.933Z,88.64
2022-11-29T06:05:19.933Z,88.44
2022-11-29T06:08:44.890Z,88.67
2022-11-29T06:12:02.449Z,88.62
2022-11-29T06:15:38.061Z,88.97
2022-11-29T06:18:59.269Z,88.91
2022-11-29T06:22:08.131Z,88.88
2022-11-29T06:25:48.449Z,88.57
2022-11-29T06:29:06.616Z,88.79
2022-11-29T06:32:26.192Z,88.96
2022-11-29T06:35:50.264Z,89.23
2022-11-29T06:38:53.000Z,89.08
2022-11-29T06:41:55.320Z,88.91
2022-11-29T06:44:57.957Z,88.83
2022-11-29T06:48:04.961Z,88.71
2022-11-29T06:51:19.711Z,88.46
2022-11-29T06:54:47.504Z,88.14
2022-11-29T06:57:58.222Z,87.78
2022-11-29T07:01:07.186Z,87.70
2022-11-29T07:04:18.619Z,87.92
2022-11-29T07:07:22.769Z,87.91
2022-11-29T07:10:26.882Z,87.83
2022-11-29T07:13:29.457Z,87.83
2022-11-29T07:17:04.035Z,87.57
2022-11-29T07:20:27.061Z,87.51
2022-11-29T07:23:53.092Z,87.53
2022-11-29T07:27:02.500Z,87.27
2022-11-29T07:30:05.274Z,86.97
2022-11-29T07:33:28.815Z,87.29
2022-11-29T07:36:49.462Z,87.38
2022-11-29T07:40:03.090Z,86.98
2022-11-29T07:43:18.402Z,86.84
2022-11-29T07:46:20.702Z,87.14
2022-11-29T07:49:23.283Z,86.81
2022-11-29T07:52:25.554Z,86.75
2022-11-29T07:55:29.749Z,86.33
2022-11-29T07:58:32.335Z,85.84
2022-11-29T08:01:34.943Z,86.01
2022-11-29T08:04:46.879Z,85.63
2022-11-29T08:07:49.565Z,85.31
2022-11-29T08:10:52.189Z,85.06
2022-11-29T08:13:58.404Z,84.99
2022-11-29T08:17:00.976Z,84.78
2022-11-29T08:20:04.489Z,85.09
2022-11-29T08:23:07.722Z,85.32
2022-11-29T08:26:10.038Z,85.40
2022-11-29T08:29:12.980Z,85.48
2022-11-29T08:32:15.372Z,85.33
2022-11-29T08:35:19.732Z,85.06
2022-11-29T08:38:22.557Z,84.50
2022-11-29T08:41:25.150Z,84.47
2022-11-29T08:44:27.632Z,84.18
2022-11-29T08:47:35.797Z,83.96
2022-11-29T08:50:38.161Z,84.17
2022-11-29T08:53:44.603Z,84.42
2022-11-29T08:57:23.510Z,84.06
2022-11-29T09:00:12.626Z,83.90
2022-11-29T09:03:33.637Z,83.84
2022-11-29T09:06:43.114Z,83.83
2022-11-29T09:09:45.421Z,83.79
2022-11-29T09:12:49.663Z,83.73
2022-11-29T09:15:51.977Z,83.77
2022-11-29T09:18:56.043Z,83.58
2022-11-29T09:21:58.280Z,84.33
2022-11-29T09:25:00.851Z,83.51
2022-11-29T09:28:03.486Z,84.19
2022-11-29T09:31:11.261Z,84.47
2022-11-29T09:34:14.878Z,84.40
2022-11-29T09:37:17.443Z,84.12
2022-11-29T09:40:22.844Z,84.10
2022-11-29T09:44:00.720Z,83.78
2022-11-29T09:47:39.744Z,83.88
2022-11-29T09:50:54.116Z,83.83
2022-11-29T09:54:05.439Z,84.15
2022-11-29T09:57:10.785Z,83.60
2022-11-29T10:00:20.057Z,83.69
2022-11-29T10:03:36.384Z,83.38
2022-11-29T10:07:00.391Z,82.88
2022-11-29T10:10:26.121Z,83.34
2022-11-29T10:13:33.439Z,83.32
2022-11-29T10:16:58.751Z,83.42
2022-11-29T10:20:21.672Z,83.69
2022-11-29T10:23:29.326Z,82.94
2022-11-29T10:26:35.122Z,82.55
2022-11-29T10:29:38.640Z,82.01
2022-11-29T10:32:43.528Z,83.08
2022-11-29T10:35:47.778Z,83.47
2022-11-29T10:38:52.322Z,83.74
2022-11-29T10:41:57.713Z,83.55
2022-11-29T10:45:00.409Z,83.29
2022-11-29T10:48:15.879Z,82.85
2022-11-29T10:51:18.799Z,82.54
2022-11-29T10:54:41.841Z,81.93
2022-11-29T10:58:16.095Z,81.59
2022-11-29T11:01:18.767Z,81.77
2022-11-29T11:04:44.720Z,82.22
2022-11-29T11:07:57.422Z,82.92
2022-11-29T11:11:02.104Z,83.50
2022-11-29T11:14:17.169Z,83.74
2022-11-29T11:17:32.903Z,83.89
2022-11-29T11:20:42.275Z,84.05
2022-11-29T11:24:04.452Z,83.50
2022-11-29T11:27:07.198Z,84.08
2022-11-29T11:30:22.550Z,83.32
2022-11-29T11:33:26.561Z,82.74
2022-11-29T11:36:28.960Z,82.52
2022-11-29T11:39:32.273Z,82.06
2022-11-29T11:42:41.039Z,82.45
2022-11-29T11:45:53.165Z,82.58
2022-11-29T11:48:55.580Z,83.15
2022-11-29T11:52:00.393Z,83.10
2022-11-29T11:55:07.603Z,83.42
2022-11-29T11:58:12.900Z,83.43
2022-11-29T12:01:16.986Z,83.52
2022-11-29T12:04:34.060Z,83.33
2022-11-29T12:08:07.260Z,83.35
2022-11-29T12:11:11.839Z,83.24
2022-11-29T12:14:28.227Z,83.43
2022-11-29T12:17:40.012Z,83.75
2022-11-29T12:21:03.799Z,83.82
2022-11-29T12:24:24.647Z,83.47
2022-11-29T12:27:33.032Z,83.62
2022-11-29T12:30:36.012Z,83.83
2022-11-29T12:33:47.380Z,83.79
2022-11-29T12:37:02.561Z,83.62
2022-11-29T12:40:32.613Z,83.40
2022-11-29T12:44:04.036Z,83.62
2022-11-29T12:47:37.087Z,83.87
2022-11-29T12:50:45.952Z,83.45
2022-11-29T12:53:54.227Z,83.56
2022-11-29T12:57:23.958Z,83.36
2022-11-29T13:00:31.571Z,83.11
2022-11-29T13:03:47.610Z,83.19
2022-11-29T13:06:59.537Z,83.32
2022-11-29T13:10:20.315Z,83.30
2022-11-29T13:13:42.742Z,82.94
2022-11-29T13:16:56.806Z,83.06
2022-11-29T13:20:16.486Z,83.06
2022-11-29T13:23:45.688Z,82.83
2022-11-29T13:26:49.772Z,82.57
2022-11-29T13:29:53.810Z,82.73
2022-11-29T13:33:05.101Z,82.54
2022-11-29T13:36:37.194Z,82.63
2022-11-29T13:39:48.420Z,82.98
2022-11-29T13:43:05.735Z,82.92
2022-11-29T13:46:16.385Z,83.06
2022-11-29T13:49:42.765Z,83.19
2022-11-29T13:52:47.239Z,83.19
2022-11-29T13:56:01.398Z,83.07
2022-11-29T13:59:08.777Z,82.98
2022-11-29T14:02:29.912Z,83.24
2022-11-29T14:05:39.863Z,83.20
2022-11-29T14:12:48.895Z,83.09
2022-11-29T14:15:58.629Z,83.23
2022-11-29T14:19:09.282Z,83.36
2022-11-29T14:22:19.469Z,83.30
2022-11-29T14:28:46.971Z,83.60
2022-11-29T14:31:51.822Z,83.77
2022-11-29T14:35:12.490Z,83.85
2022-11-29T14:38:39.198Z,83.70
2022-11-29T14:42:19.130Z,83.79
2022-11-29T14:45:31.127Z,83.84
2022-11-29T14:48:34.343Z,83.78
2022-11-29T14:51:37.470Z,83.78
2022-11-29T14:54:59.272Z,83.94
2022-11-29T14:58:05.952Z,83.77
2022-11-29T15:01:10.869Z,83.79
2022-11-29T15:04:13.920Z,83.99
2022-11-29T15:07:24.710Z,83.83
2022-11-29T15:10:31.595Z,83.83
2022-11-29T15:13:36.567Z,83.94
2022-11-29T15:16:56.346Z,83.99
2022-11-29T15:19:58.522Z,84.07
2022-11-29T15:23:09.752Z,84.16
2022-11-29T15:26:20.599Z,83.89
2022-11-29T15:29:23.613Z,83.79
2022-11-29T15:32:32.786Z,83.75
2022-11-29T15:35:36.756Z,83.89
2022-11-29T15:38:45.370Z,83.81
2022-11-29T15:41:47.968Z,83.68
2022-11-29T15:44:52.943Z,83.65
2022-11-29T15:48:10.310Z,83.53
2022-11-29T15:51:30.406Z,83.50
2022-11-29T15:54:57.027Z,83.49
2022-11-29T15:58:07.031Z,83.58
2022-11-29T16:01:19.274Z,83.74
2022-11-29T16:04:24.623Z,83.55
2022-11-29T16:07:32.388Z,83.60
2022-11-29T16:10:40.615Z,83.96
2022-11-29T16:14:16.673Z,84.01
2022-11-29T16:17:20.990Z,84.12
2022-11-29T16:20:25.863Z,84.44
2022-11-29T16:23:34.114Z,84.42
2022-11-29T16:26:44.082Z,84.36
2022-11-29T16:29:47.521Z,84.44
2022-11-29T16:32:59.469Z,84.63
2022-11-29T16:36:28.805Z,84.55
2022-11-29T16:39:31.586Z,84.40
2022-11-29T16:42:34.965Z,84.27
2022-11-29T16:45:41.712Z,84.49
2022-11-29T16:48:44.373Z,84.58
2022-11-29T16:51:48.365Z,84.64
2022-11-29T16:54:51.800Z,84.35
2022-11-29T16:57:54.164Z,84.18
2022-11-29T17:00:56.775Z,84.28
2022-11-29T17:04:00.536Z,84.36
2022-11-29T17:07:05.823Z,84.69
2022-11-29T17:10:13.415Z,84.84
2022-11-29T17:13:16.053Z,84.80
2022-11-29T17:16:21.261Z,84.83
2022-11-29T17:19:24.520Z,85.01
2022-11-29T17:22:26.846Z,84.91
2022-11-29T17:25:29.432Z,84.79
2022-11-29T17:28:31.755Z,84.58
2022-11-29T17:31:34.433Z,84.73
2022-11-29T17:34:37.270Z,84.87
2022-11-29T17:37:39.862Z,84.79
2022-11-29T17:40:42.193Z,84.78
2022-11-29T17:43:44.813Z,84.94
2022-11-29T17:46:47.001Z,84.65
2022-11-29T17:49:49.562Z,84.42
2022-11-29T17:52:51.843Z,84.68
2022-11-29T17:55:54.408Z,84.59
2022-11-29T17:58:59.071Z,84.57
2022-11-29T18:02:03.923Z,84.46
2022-11-29T18:05:07.137Z,84.70
2022-11-29T18:08:09.517Z,84.92
2022-11-29T18:11:13.348Z,85.15
2022-11-29T18:14:23.787Z,85.39
2022-11-29T18:17:26.718Z,85.24
2022-11-29T18:20:28.916Z,85.08
2022-11-29T18:23:33.841Z,85.04
2022-11-29T18:26:37.379Z,85.27
2022-11-29T18:29:40.000Z,85.17
2022-11-29T18:32:42.231Z,85.31
2022-11-29T18:35:44.784Z,85.23
2022-11-29T18:38:48.167Z,85.24
2022-11-29T18:41:51.181Z,85.39
2022-11-29T18:44:58.638Z,85.48
2022-11-29T18:48:01.647Z,85.60
2022-11-29T18:51:10.245Z,85.75
2022-11-29T18:54:17.594Z,85.70
2022-11-29T18:57:19.883Z,85.06
2022-11-29T19:00:22.653Z,85.49
2022-11-29T19:03:24.945Z,85.59
2022-11-29T19:06:35.582Z,85.42
2022-11-29T19:09:41.380Z,85.98
2022-11-29T19:12:44.032Z,85.84
2022-11-29T19:15:55.976Z,85.62
2022-11-29T19:18:59.713Z,85.54
2022-11-29T19:22:02.548Z,85.73
2022-11-29T19:25:06.025Z,85.67
2022-11-29T19:28:13.897Z,85.66
2022-11-29T19:31:19.272Z,85.58
2022-11-29T19:34:23.599Z,85.58
2022-11-29T19:37:26.195Z,85.49
2022-11-29T19:40:28.521Z,85.58
2022-11-29T19:43:31.616Z,85.57
2022-11-29T19:46:40.071Z,85.70
2022-11-29T19:49:46.582Z,85.55
2022-11-29T19:52:49.403Z,85.29
2022-11-29T19:55:52.173Z,85.23
2022-11-29T19:58:55.342Z,85.27
2022-11-29T20:01:58.161Z,85.28
2022-11-29T20:05:01.379Z,85.29
2022-11-29T20:08:03.882Z,85.26
2022-11-29T20:11:08.047Z,85.42
2022-11-29T20:14:12.051Z,84.92
2022-11-29T20:17:14.727Z,84.63
2022-11-29T20:20:17.090Z,85.17
2022-11-29T20:23:19.783Z,85.01
2022-11-29T20:26:25.422Z,84.85
2022-11-29T20:29:30.997Z,84.75
2022-11-29T20:32:34.976Z,84.63
2022-11-29T20:35:38.332Z,84.60
2022-11-29T20:38:48.781Z,84.54
2022-11-29T20:42:18.843Z,84.47
2022-11-29T20:45:24.266Z,84.57
2022-11-29T20:48:28.875Z,84.46
2022-11-29T20:51:42.978Z,84.45
2022-11-29T20:54:45.570Z,84.20
2022-11-29T20:57:48.039Z,84.32
2022-11-29T21:00:50.638Z,84.02
2022-11-29T21:03:53.266Z,84.35
2022-11-29T21:06:55.963Z,83.96
2022-11-29T21:10:01.405Z,84.18
2022-11-29T21:13:06.043Z,84.22
2022-11-29T21:16:11.117Z,84.04
2022-11-29T21:19:21.320Z,84.24
2022-11-29T21:22:42.706Z,84.20
2022-11-29T21:25:55.018Z,84.01
2022-11-29T21:29:00.466Z,83.87
2022-11-29T21:32:03.624Z,83.69
2022-11-29T21:35:07.071Z,83.88
2022-11-29T21:38:20.114Z,83.65
2022-11-29T21:41:23.740Z,83.52
2022-11-29T21:44:27.706Z,82.89
2022-11-29T21:47:30.577Z,82.51
2022-11-29T21:50:33.100Z,82.53
2022-11-29T21:53:37.082Z,82.54
2022-11-29T21:56:39.876Z,82.65
2022-11-29T21:59:42.622Z,82.75
2022-11-29T22:02:47.947Z,82.58
2022-11-29T22:05:52.647Z,82.29
2022-11-29T22:08:55.016Z,82.36
2022-11-29T22:11:59.058Z,81.93
2022-11-29T22:15:01.384Z,82.38
2022-11-29T22:18:04.511Z,82.17
2022-11-29T22:21:07.455Z,81.75
2022-11-29T22:24:11.463Z,81.72
2022-11-29T22:27:13.778Z,81.49
2022-11-29T22:30:16.815Z,81.75
2022-11-29T22:33:19.064Z,81.73
2022-11-29T22:36:21.894Z,81.73
2022-11-29T22:39:24.306Z,81.80
2022-11-29T22:42:27.238Z,81.94
2022-11-29T22:45:29.545Z,82.02
2022-11-29T22:48:38.161Z,81.83
2022-11-29T22:51:41.598Z,81.87
2022-11-29T22:54:44.753Z,81.89
2022-11-29T22:57:47.773Z,81.67
2022-11-29T23:00:50.307Z,81.55
2022-11-29T23:04:00.970Z,81.05
2022-11-29T23:07:03.540Z,81.13
2022-11-29T23:10:06.525Z,80.69
2022-11-29T23:13:09.080Z,80.64
2022-11-29T23:16:14.264Z,80.49
2022-11-29T23:19:17.378Z,80.61
2022-11-29T23:22:19.637Z,80.60
2022-11-29T23:25:22.371Z,80.50
2022-11-29T23:28:25.622Z,80.34
2022-11-29T23:31:28.755Z,80.05
2022-11-29T23:34:31.235Z,80.12
2022-11-29T23:37:33.726Z,80.18
2022-11-29T23:40:35.969Z,79.50
2022-11-29T23:43:40.656Z,79.39
2022-11-29T23:46:42.962Z,78.98
2022-11-29T23:49:45.581Z,78.85
2022-11-29T23:52:53.891Z,78.66
2022-11-29T23:55:58.417Z,78.39
2022-11-29T23:59:01.379Z,78.13
